createdAt,value
2022-10-09T00:01:12.590Z,7.60
2022-10-09T00:06:18.074Z,6.93
2022-10-09T00:11:26.274Z,9.32
2022-10-09T00:16:28.754Z,7.65
2022-10-09T00:21:34.443Z,7.22
2022-10-09T00:26:36.915Z,5.82
2022-10-09T00:37:10.705Z,9.25
2022-10-09T00:42:13.798Z,7.43
2022-10-09T00:47:42.093Z,7.45
2022-10-09T00:52:44.962Z,8.80
2022-10-09T00:57:47.768Z,5.25
2022-10-09T01:02:50.244Z,7.13
2022-10-09T01:07:58.879Z,6.90
2022-10-09T01:13:20.119Z,8.90
2022-10-09T01:18:25.007Z,10.55
2022-10-09T01:23:51.587Z,8.30
2022-10-09T01:34:00.095Z,5.90
2022-10-09T01:39:04.476Z,11.05
2022-10-09T01:44:32.343Z,7.78
2022-10-09T01:49:55.215Z,8.35
2022-10-09T01:55:22.183Z,8.93
2022-10-09T02:00:24.995Z,8.45
2022-10-09T02:05:29.381Z,8.13
2022-10-09T02:10:33.300Z,8.30
2022-10-09T02:15:39.693Z,7.03
2022-10-09T02:20:51.781Z,8.77
2022-10-09T02:25:54.379Z,7.63
2022-10-09T02:31:04.678Z,8.95
2022-10-09T02:36:07.123Z,8.82
2022-10-09T02:41:09.698Z,6.22
2022-10-09T02:46:12.098Z,8.27
2022-10-09T02:51:14.614Z,8.85
2022-10-09T02:56:16.954Z,9.55
2022-10-09T03:01:19.783Z,7.65
2022-10-09T03:06:24.389Z,8.98
2022-10-09T03:11:27.240Z,9.45
2022-10-09T03:16:29.741Z,11.65
2022-10-09T03:21:32.098Z,7.75
2022-10-09T03:26:34.558Z,10.52
2022-10-09T03:31:51.994Z,7.43
2022-10-09T03:36:55.300Z,10.60
2022-10-09T03:41:57.622Z,14.65
2022-10-09T03:47:00.096Z,8.85
2022-10-09T03:52:02.518Z,7.60
2022-10-09T03:57:04.898Z,12.18
2022-10-09T04:02:07.279Z,9.85
2022-10-09T04:07:09.633Z,10.27
2022-10-09T04:12:11.962Z,9.98
2022-10-09T04:17:14.297Z,7.97
2022-10-09T04:22:16.627Z,14.20
2022-10-09T04:27:19.027Z,6.70
2022-10-09T04:32:21.458Z,9.55
2022-10-09T04:37:23.795Z,9.65
2022-10-09T04:42:26.167Z,11.95
2022-10-09T04:47:28.556Z,12.23
2022-10-09T04:52:30.889Z,11.60
2022-10-09T04:57:33.217Z,9.85
2022-10-09T05:02:35.689Z,12.38
2022-10-09T05:07:38.683Z,7.70
2022-10-09T05:12:41.031Z,6.57
2022-10-09T05:17:43.436Z,11.45
2022-10-09T05:22:47.277Z,10.85
2022-10-09T05:27:49.777Z,8.57
2022-10-09T05:32:52.307Z,11.88
2022-10-09T05:37:54.815Z,8.27
2022-10-09T05:42:57.240Z,16.83
2022-10-09T05:47:59.761Z,12.57
2022-10-09T05:53:02.366Z,9.40
2022-10-09T05:58:04.961Z,8.35
2022-10-09T06:03:07.414Z,8.35
2022-10-09T06:08:09.767Z,12.25
2022-10-09T06:13:12.096Z,8.25
2022-10-09T06:18:14.563Z,15.23
2022-10-09T06:23:16.907Z,9.20
2022-10-09T06:28:19.530Z,9.18
2022-10-09T06:33:21.994Z,9.52
2022-10-09T06:38:24.697Z,12.10
2022-10-09T06:43:27.097Z,8.57
2022-10-09T06:48:31.270Z,10.15
2022-10-09T06:53:38.099Z,7.60
2022-10-09T06:58:41.181Z,5.75
2022-10-09T07:03:45.595Z,7.32
2022-10-09T07:08:55.227Z,8.98
2022-10-09T07:13:59.902Z,13.48
2022-10-09T07:19:03.991Z,6.75
2022-10-09T07:24:07.019Z,7.35
2022-10-09T07:29:11.095Z,14.50
2022-10-09T07:34:13.703Z,7.38
2022-10-09T07:39:19.311Z,4.05
2022-10-09T07:44:21.669Z,6.75
2022-10-09T07:49:24.054Z,4.65
2022-10-09T07:54:26.755Z,11.80
2022-10-09T07:59:29.128Z,4.15
2022-10-09T08:04:31.514Z,4.40
2022-10-09T08:09:33.912Z,6.13
2022-10-09T08:14:36.273Z,9.55
2022-10-09T08:19:38.653Z,3.33
2022-10-09T08:24:41.036Z,4.90
2022-10-09T08:29:43.431Z,7.40
2022-10-09T08:34:47.138Z,5.70
2022-10-09T08:39:49.561Z,9.10
2022-10-09T08:44:52.015Z,5.53
2022-10-09T08:49:59.744Z,4.20
2022-10-09T08:55:09.112Z,6.15
2022-10-09T09:00:19.832Z,7.32
2022-10-09T09:05:25.014Z,3.00
2022-10-09T09:10:43.725Z,5.30
2022-10-09T09:16:01.425Z,5.95
2022-10-09T09:21:17.632Z,8.65
2022-10-09T09:26:21.547Z,5.38
2022-10-09T09:31:26.914Z,3.28
2022-10-09T09:36:34.345Z,5.45
2022-10-09T09:41:36.753Z,5.05
2022-10-09T09:46:39.991Z,5.78
2022-10-09T09:51:42.318Z,4.15
2022-10-09T09:57:10.861Z,2.85
2022-10-09T10:02:15.769Z,6.85
2022-10-09T10:07:30.283Z,3.38
2022-10-09T10:12:32.758Z,3.47
2022-10-09T10:17:36.081Z,6.50
2022-10-09T10:22:38.503Z,5.63
2022-10-09T10:27:42.673Z,5.63
2022-10-09T10:33:04.302Z,4.60
2022-10-09T10:38:20.602Z,5.03
2022-10-09T10:43:45.849Z,3.92
2022-10-09T10:48:48.700Z,4.47
2022-10-09T10:54:06.393Z,3.55
2022-10-09T10:59:08.667Z,4.30
2022-10-09T11:04:26.173Z,3.35
2022-10-09T11:10:23.489Z,4.13
2022-10-09T11:15:30.997Z,3.58
2022-10-09T11:20:45.822Z,3.30
2022-10-09T11:25:56.879Z,11.07
2022-10-09T11:31:12.957Z,7.28
2022-10-09T11:36:27.282Z,13.35
2022-10-09T11:41:30.697Z,9.85
2022-10-09T11:46:54.616Z,3.10
2022-10-09T11:52:29.418Z,7.20
2022-10-09T11:57:33.658Z,4.35
2022-10-09T12:02:37.296Z,5.65
2022-10-09T12:07:40.091Z,9.80
2022-10-09T12:12:42.888Z,4.75
2022-10-09T12:17:50.145Z,3.15
2022-10-09T12:23:24.675Z,3.88
2022-10-09T12:28:28.071Z,3.78
2022-10-09T12:33:44.588Z,2.97
2022-10-09T12:38:47.013Z,3.08
2022-10-09T12:43:53.998Z,2.35
2022-10-09T12:48:56.479Z,2.67
2022-10-09T12:53:58.894Z,5.25
2022-10-09T12:59:02.379Z,3.92
2022-10-09T13:04:06.426Z,2.50
2022-10-09T13:09:09.855Z,5.10
2022-10-09T13:14:53.714Z,3.00
2022-10-09T13:19:58.683Z,5.28
2022-10-09T13:25:01.167Z,3.40
2022-10-09T13:30:03.903Z,2.40
2022-10-09T13:35:06.423Z,3.28
2022-10-09T13:40:15.553Z,1.77
2022-10-09T13:45:18.024Z,2.25
2022-10-09T13:50:20.511Z,1.48
2022-10-09T13:55:22.829Z,1.10
2022-10-09T14:00:25.599Z,1.88
2022-10-09T14:05:27.982Z,3.25
2022-10-09T14:10:30.387Z,3.35
2022-10-09T14:15:32.696Z,11.43
2022-10-09T14:20:35.620Z,3.03
2022-10-09T14:25:38.131Z,3.78
2022-10-09T14:30:42.005Z,3.17
2022-10-09T14:35:44.420Z,3.25
2022-10-09T14:40:46.947Z,2.55
2022-10-09T14:45:49.347Z,2.05
2022-10-09T14:50:51.655Z,4.45
2022-10-09T14:55:54.091Z,5.45
2022-10-09T15:00:56.680Z,6.38
2022-10-09T15:06:00.615Z,4.35
2022-10-09T15:11:03.730Z,6.95
2022-10-09T15:16:14.692Z,5.85
2022-10-09T15:21:22.946Z,5.03
2022-10-09T15:26:26.522Z,5.18
2022-10-09T15:31:31.328Z,12.32
2022-10-09T15:36:39.754Z,8.75
2022-10-09T15:41:43.529Z,8.02
2022-10-09T15:46:46.822Z,7.15
2022-10-09T15:51:49.279Z,5.75
2022-10-09T15:56:51.744Z,5.13
2022-10-09T16:01:54.171Z,5.20
2022-10-09T16:06:58.179Z,6.95
2022-10-09T16:12:00.980Z,23.45
2022-10-09T16:17:04.695Z,17.70
2022-10-09T16:22:08.961Z,9.38
2022-10-09T16:27:11.370Z,14.40
2022-10-09T16:32:13.781Z,17.73
2022-10-09T16:37:16.410Z,31.25
2022-10-09T16:42:18.790Z,39.97
2022-10-09T16:47:21.191Z,21.10
2022-10-09T16:52:23.554Z,18.90
2022-10-09T16:57:25.914Z,24.70
2022-10-09T17:02:28.849Z,31.95
2022-10-09T17:07:31.266Z,35.88
2022-10-09T17:12:33.578Z,29.38
2022-10-09T17:17:36.037Z,14.18
2022-10-09T17:22:38.391Z,14.38
2022-10-09T17:27:40.814Z,12.48
2022-10-09T17:32:43.154Z,18.98
2022-10-09T17:37:45.559Z,25.20
2022-10-09T17:42:48.234Z,44.30
2022-10-09T17:47:51.362Z,97.38
2022-10-09T17:52:55.008Z,91.13
2022-10-09T17:57:57.911Z,155.55
2022-10-09T18:03:00.297Z,240.02
2022-10-09T18:08:02.763Z,123.90
2022-10-09T18:13:06.578Z,75.82
2022-10-09T18:18:09.896Z,51.63
2022-10-09T18:23:12.275Z,34.25
2022-10-09T18:28:15.396Z,31.35
2022-10-09T18:33:17.830Z,28.38
2022-10-09T18:38:20.168Z,16.48
2022-10-09T18:43:22.549Z,14.30
2022-10-09T18:48:25.169Z,13.15
2022-10-09T18:53:27.809Z,10.95
2022-10-09T18:58:30.234Z,11.82
2022-10-09T19:03:32.630Z,11.85
2022-10-09T19:08:35.603Z,16.15
2022-10-09T19:13:38.179Z,13.60
2022-10-09T19:18:40.734Z,13.80
2022-10-09T19:23:44.037Z,19.23
2022-10-09T19:28:46.677Z,17.67
2022-10-09T19:33:49.044Z,18.38
2022-10-09T19:38:51.402Z,17.20
2022-10-09T19:43:53.965Z,15.75
2022-10-09T19:48:56.469Z,18.02
2022-10-09T19:53:59.206Z,21.98
2022-10-09T19:59:03.112Z,35.95
2022-10-09T20:04:08.255Z,44.88
2022-10-09T20:09:12.404Z,57.70
2022-10-09T20:14:14.753Z,49.00
2022-10-09T20:19:18.322Z,38.25
2022-10-09T20:24:20.642Z,28.98
2022-10-09T20:29:23.073Z,21.33
2022-10-09T20:34:27.094Z,20.38
2022-10-09T20:39:29.486Z,19.27
2022-10-09T20:44:31.833Z,18.00
2022-10-09T20:49:34.608Z,15.60
2022-10-09T20:54:37.009Z,17.40
2022-10-09T20:59:39.443Z,15.38
2022-10-09T21:04:41.847Z,17.15
2022-10-09T21:09:44.358Z,13.65
2022-10-09T21:14:46.777Z,17.50
2022-10-09T21:20:00.582Z,13.93
2022-10-09T21:25:02.958Z,16.98
2022-10-09T21:30:05.806Z,18.85
2022-10-09T21:35:08.403Z,18.42
2022-10-09T21:40:10.946Z,16.13
2022-10-09T21:45:13.609Z,16.95
2022-10-09T21:50:15.970Z,13.35
2022-10-09T21:55:18.393Z,16.52
2022-10-09T22:00:21.293Z,14.57
2022-10-09T22:05:23.655Z,14.68
2022-10-09T22:10:26.023Z,16.30
2022-10-09T22:15:28.403Z,17.15
2022-10-09T22:20:30.758Z,15.95
2022-10-09T22:25:34.049Z,13.23
2022-10-09T22:30:36.697Z,17.00
2022-10-09T22:35:39.045Z,17.35
2022-10-09T22:40:46.385Z,23.05
2022-10-09T22:45:49.526Z,17.05
2022-10-09T22:50:51.934Z,18.45
2022-10-09T22:55:54.371Z,20.63
2022-10-09T23:00:56.775Z,21.15
2022-10-09T23:06:13.503Z,21.60
2022-10-09T23:11:17.023Z,18.97
2022-10-09T23:16:19.416Z,19.05
2022-10-09T23:21:23.504Z,19.92
2022-10-09T23:26:28.809Z,23.25
2022-10-09T23:31:31.447Z,22.60
2022-10-09T23:36:34.303Z,24.33
2022-10-09T23:41:36.683Z,21.90
2022-10-09T23:46:39.955Z,22.27
2022-10-09T23:51:42.297Z,22.48
2022-10-09T23:56:44.699Z,23.02
